Time;durP1;ratioP1;P1;durP2;ratioP2;P2;SDS_P1;SDS_P2;PMS_P1;PMS_P2;Temp;Humidity;BMP_temperature;BMP_pressure;BME280_temperature;BME280_humidity;BME280_pressure;Samples;Min_cycle;Max_cycle;Signal;HPM_P1;HPM_P2
2022/07/08 00:02:20;;;;;;;;;2.00;2.00;;;;;17.94;52.52;102813.50;6304095;22;45388;-82
2022/07/08 00:04:46;;;;;;;;;4.25;3.00;;;;;17.92;51.97;102810.94;6303658;22;54124;-81
2022/07/08 00:07:11;;;;;;;;;3.50;2.00;;;;;17.91;51.99;102819.72;6304004;22;45368;-82
2022/07/08 00:09:36;;;;;;;;;4.00;2.00;;;;;17.92;51.67;102828.50;6302582;22;54799;-81
2022/07/08 00:12:02;;;;;;;;;3.25;2.00;;;;;17.88;51.67;102830.34;6303582;22;45501;-81
2022/07/08 00:14:27;;;;;;;;;2.00;2.00;;;;;17.86;52.11;102823.41;6303428;22;47043;-81
2022/07/08 00:16:52;;;;;;;;;4.25;2.50;;;;;17.83;51.79;102821.69;6302591;22;73234;-81
2022/07/08 00:19:19;;;;;;;;;2.00;2.00;;;;;17.74;52.04;102814.88;6304047;22;45409;-81
2022/07/08 00:21:46;;;;;;;;;3.75;3.75;;;;;17.76;52.26;102825.38;6277148;22;45513;-82
2022/07/08 00:24:12;;;;;;;;;2.00;2.00;;;;;17.75;52.37;102821.00;6305420;22;45455;-81
2022/07/08 00:26:38;;;;;;;;;2.50;2.00;;;;;17.73;53.05;102833.34;6305598;22;45571;-81
2022/07/08 00:29:03;;;;;;;;;3.50;2.75;;;;;17.66;51.94;102823.88;6305725;22;45355;-81
2022/07/08 00:31:29;;;;;;;;;3.50;2.00;;;;;17.67;52.28;102829.09;6277397;22;45513;-82
2022/07/08 00:33:54;;;;;;;;;6.50;1.50;;;;;17.64;52.16;102820.41;6277898;22;45224;-81
2022/07/08 00:36:20;;;;;;;;;3.75;2.25;;;;;17.60;52.41;102812.59;6305082;22;45175;-81
2022/07/08 00:38:45;;;;;;;;;4.50;2.00;;;;;17.53;52.11;102804.88;6277637;22;45334;-82
2022/07/08 00:41:11;;;;;;;;;2.50;2.00;;;;;17.57;52.38;102812.69;6304926;22;45215;-82
2022/07/08 00:43:40;;;;;;;;;2.50;2.50;;;;;17.55;52.76;102814.50;6304796;22;47274;-81
2022/07/08 00:46:06;;;;;;;;;3.25;3.00;;;;;17.41;53.00;102800.81;6305062;22;45666;-81
2022/07/08 00:48:31;;;;;;;;;2.50;2.00;;;;;17.45;52.59;102802.44;6305707;22;45302;-81
2022/07/08 00:51:02;;;;;;;;;2.75;2.75;;;;;17.47;52.61;102823.47;6277025;22;45525;-82
2022/07/08 00:53:29;;;;;;;;;1.00;1.00;;;;;17.43;52.38;102820.06;6277285;22;46135;-81
2022/07/08 00:55:54;;;;;;;;;4.00;1.00;;;;;17.40;52.70;102821.00;6278012;22;45386;-81
2022/07/08 00:58:20;;;;;;;;;4.50;2.00;;;;;17.39;52.39;102824.53;6304156;22;66792;-81
2022/07/08 01:00:47;;;;;;;;;3.00;1.25;;;;;17.38;52.24;102833.34;6276235;22;68107;-81
2022/07/08 01:03:12;;;;;;;;;2.00;2.00;;;;;17.33;52.49;102823.84;6305523;22;45355;-82
2022/07/08 01:05:38;;;;;;;;;3.00;2.00;;;;;17.33;53.19;102827.31;6277252;22;45362;-81
2022/07/08 01:08:03;;;;;;;;;2.00;2.00;;;;;17.33;53.17;102829.94;6305177;22;45179;-81
2022/07/08 01:10:29;;;;;;;;;3.50;1.75;;;;;17.25;52.35;102816.09;6277554;22;45299;-81
2022/07/08 01:12:55;;;;;;;;;1.00;1.00;;;;;17.27;52.35;102832.72;6277218;22;46702;-82
2022/07/08 01:15:22;;;;;;;;;1.00;1.00;;;;;17.25;52.83;102831.88;6277735;22;45339;-81
2022/07/08 01:17:48;;;;;;;;;2.50;2.00;;;;;17.25;52.29;102842.41;6277519;22;45341;-81
2022/07/08 01:20:14;;;;;;;;;2.25;2.00;;;;;17.14;52.64;102836.53;6276828;22;45306;-81
2022/07/08 01:22:39;;;;;;;;;1.00;1.00;;;;;17.13;52.87;102837.47;6305319;22;45605;-81
2022/07/08 01:25:06;;;;;;;;;2.00;1.75;;;;;17.15;52.76;102847.03;6303834;22;72380;-81
2022/07/08 01:27:32;;;;;;;;;2.50;2.00;;;;;17.13;53.05;102853.25;6277275;22;45263;-81
2022/07/08 01:29:57;;;;;;;;;1.50;1.50;;;;;17.08;53.14;102844.56;6305066;22;45391;-81
2022/07/08 01:32:23;;;;;;;;;1.00;1.00;;;;;17.12;52.95;102865.50;6276142;22;70406;-81
2022/07/08 01:34:48;;;;;;;;;2.00;2.00;;;;;17.06;52.66;102851.66;6275960;22;62357;-81
2022/07/08 01:37:13;;;;;;;;;2.50;2.50;;;;;17.08;53.16;102874.38;6305373;22;45312;-81
2022/07/08 01:39:39;;;;;;;;;2.00;1.00;;;;;17.05;53.25;102870.94;6304258;22;63367;-81
2022/07/08 01:42:04;;;;;;;;;2.75;1.75;;;;;17.00;53.06;102874.56;6276039;22;71416;-81
2022/07/08 01:44:29;;;;;;;;;2.00;1.75;;;;;17.03;53.19;102878.88;6277668;22;45274;-81
2022/07/08 01:46:55;;;;;;;;;2.00;1.00;;;;;16.96;52.87;102874.66;6305338;22;45238;-81
2022/07/08 01:49:20;;;;;;;;;1.00;1.00;;;;;16.91;52.89;102872.13;6303261;22;69468;-81
2022/07/08 01:51:46;;;;;;;;;1.00;1.00;;;;;16.94;52.63;102881.72;6277356;22;46004;-81
2022/07/08 01:54:11;;;;;;;;;1.00;1.00;;;;;16.88;52.17;102869.53;6276841;22;45317;-82
2022/07/08 01:56:36;;;;;;;;;3.00;0.75;;;;;16.79;52.67;102856.56;6304370;22;61836;-81
2022/07/08 01:59:02;;;;;;;;;5.75;1.00;;;;;16.83;52.84;102859.13;6303766;22;69317;-81
2022/07/08 02:01:27;;;;;;;;;1.50;1.00;;;;;16.79;52.59;102861.81;6304980;22;45423;-82
2022/07/08 02:03:53;;;;;;;;;3.25;1.25;;;;;16.72;53.19;102850.59;6303707;22;68543;-81
2022/07/08 02:06:18;;;;;;;;;1.75;1.75;;;;;16.72;53.59;102852.34;6276964;22;57321;-81
2022/07/08 02:08:43;;;;;;;;;1.75;1.00;;;;;16.62;53.87;102851.66;6275874;22;67504;-81
2022/07/08 02:13:53;;;;;;;;;1.75;1.00;;;;;16.64;53.68;102866.53;6305145;22;45264;-81
2022/07/08 02:16:19;;;;;;;;;4.00;2.00;;;;;16.59;53.29;102863.13;6303974;22;67932;-81
2022/07/08 02:18:44;;;;;;;;;2.75;1.00;;;;;16.63;54.54;102867.41;6304561;22;45289;-81
2022/07/08 02:21:09;;;;;;;;;6.00;3.00;;;;;16.60;53.26;102869.22;6304098;22;65960;-81
2022/07/08 02:23:35;;;;;;;;;2.00;1.00;;;;;16.55;53.46;102861.44;6303987;22;63761;-81
2022/07/08 02:26:00;;;;;;;;;3.00;1.75;;;;;16.52;53.83;102852.75;6276978;22;53968;-81
2022/07/08 02:28:25;;;;;;;;;1.00;1.00;;;;;16.50;53.80;102858.03;6303703;22;64723;-81
2022/07/08 02:30:51;;;;;;;;;3.25;1.75;;;;;16.44;54.74;102845.03;6276931;22;45335;-81
2022/07/08 02:33:16;;;;;;;;;4.75;2.00;;;;;16.41;54.02;102845.94;6303366;22;71736;-81
2022/07/08 02:35:41;;;;;;;;;2.50;2.00;;;;;16.39;53.95;102850.38;6305018;22;45310;-81
2022/07/08 02:38:07;;;;;;;;;2.25;2.00;;;;;16.39;54.07;102854.75;6304382;22;56213;-81
2022/07/08 02:40:32;;;;;;;;;2.00;2.00;;;;;16.42;54.13;102863.47;6277248;22;46006;-81
2022/07/08 02:42:57;;;;;;;;;1.50;1.50;;;;;16.34;54.28;102846.09;6275496;22;70464;-81
2022/07/08 02:45:23;;;;;;;;;3.25;1.50;;;;;16.36;54.79;102846.94;6303597;22;67149;-81
2022/07/08 02:47:48;;;;;;;;;2.00;1.00;;;;;16.33;54.39;102850.50;6304551;22;45217;-81
2022/07/08 02:50:13;;;;;;;;;2.00;2.00;;;;;16.32;54.29;102851.38;6275652;22;71563;-81
2022/07/08 02:52:39;;;;;;;;;2.00;2.00;;;;;16.33;54.29;102847.00;6303554;22;71782;-81
2022/07/08 02:55:04;;;;;;;;;4.00;2.00;;;;;16.28;54.44;102843.59;6304995;22;45742;-81
2022/07/08 02:57:30;;;;;;;;;3.25;1.75;;;;;16.32;54.48;102850.53;6277200;22;45296;-81
2022/07/08 02:59:55;;;;;;;;;3.00;2.00;;;;;16.32;55.12;102847.91;6276608;22;46467;-81
2022/07/08 03:02:20;;;;;;;;;3.50;2.00;;;;;16.33;55.16;102865.41;6302971;22;72292;-81
2022/07/08 03:04:46;;;;;;;;;2.75;1.25;;;;;16.29;54.53;102859.34;6303834;22;53932;-81
2022/07/08 03:07:11;;;;;;;;;2.00;1.50;;;;;16.24;54.50;102858.56;6303725;22;66464;-81
2022/07/08 03:09:36;;;;;;;;;5.75;2.00;;;;;16.19;54.99;102855.13;6304527;22;46198;-81
2022/07/08 03:12:02;;;;;;;;;2.00;2.00;;;;;16.21;54.79;102867.38;6303605;22;67843;-81
2022/07/08 03:14:27;;;;;;;;;1.50;1.50;;;;;16.18;54.82;102872.69;6304451;22;45296;-81
2022/07/08 03:16:52;;;;;;;;;2.00;2.00;;;;;16.17;54.14;102867.44;6303576;22;60385;-81
2022/07/08 03:19:18;;;;;;;;;1.00;1.00;;;;;16.12;54.83;102861.41;6303129;22;75655;-81
2022/07/08 03:21:43;;;;;;;;;2.00;1.00;;;;;16.11;55.16;102862.31;6275066;22;73412;-81
2022/07/08 03:24:08;;;;;;;;;3.75;1.50;;;;;16.08;55.08;102864.97;6303690;22;62062;-81
2022/07/08 03:26:34;;;;;;;;;2.25;1.50;;;;;16.08;55.28;102868.47;6304600;22;45397;-81
2022/07/08 03:28:59;;;;;;;;;3.50;2.25;;;;;16.06;56.25;102886.03;6303209;22;74605;-81
2022/07/08 03:31:24;;;;;;;;;5.50;2.75;;;;;16.03;55.17;102876.44;6302794;22;67377;-81
2022/07/08 03:33:50;;;;;;;;;2.50;1.00;;;;;16.02;55.00;102882.59;6303288;22;69486;-81
2022/07/08 03:36:16;;;;;;;;;2.00;1.00;;;;;16.00;54.93;102886.16;6277139;22;45358;-81
2022/07/08 03:38:41;;;;;;;;;2.50;2.00;;;;;15.93;55.37;102879.25;6303170;22;68324;-81
2022/07/08 03:41:24;;;;;;;;;1.50;1.50;;;;;15.93;54.71;102884.50;6303927;22;50642;-81
2022/07/08 03:43:51;;;;;;;;;1.75;1.75;;;;;15.88;55.56;102887.22;6281050;22;45334;-81
2022/07/08 03:46:17;;;;;;;;;1.00;1.00;;;;;15.85;55.76;102885.50;6276438;22;45247;-81
2022/07/08 03:48:43;;;;;;;;;2.00;2.00;;;;;15.85;55.33;102879.41;6304272;22;45350;-80
2022/07/08 03:51:08;;;;;;;;;2.75;2.75;;;;;15.81;55.72;102880.34;6275373;22;68240;-81
2022/07/08 03:53:34;;;;;;;;;1.75;1.75;;;;;15.85;55.89;102887.28;6276234;22;45276;-81
2022/07/08 03:55:59;;;;;;;;;1.50;1.50;;;;;15.80;55.63;102891.72;6277341;22;45370;-80
2022/07/08 03:58:24;;;;;;;;;2.00;2.00;;;;;15.86;55.78;102895.13;6305372;22;45269;-81
2022/07/08 04:00:50;;;;;;;;;4.00;1.00;;;;;15.87;55.34;102901.25;6276190;22;68350;-81
2022/07/08 04:03:15;;;;;;;;;2.50;2.00;;;;;15.85;55.84;102895.16;6305882;22;45389;-81
2022/07/08 04:05:41;;;;;;;;;2.00;2.00;;;;;15.87;55.79;102901.25;6277659;22;45481;-80
2022/07/08 04:08:06;;;;;;;;;5.75;3.00;;;;;15.84;55.74;102893.41;6305541;22;45447;-81
2022/07/08 04:10:31;;;;;;;;;2.00;2.00;;;;;15.80;55.61;102895.22;6276994;22;51129;-81
2022/07/08 04:12:57;;;;;;;;;2.00;2.00;;;;;15.85;55.63;102892.53;6305330;22;45458;-81
2022/07/08 04:15:22;;;;;;;;;4.25;3.00;;;;;15.83;55.64;102891.69;6276367;22;70038;-81
2022/07/08 04:17:47;;;;;;;;;2.00;2.00;;;;;15.83;56.08;102894.31;6277133;22;47299;-80
2022/07/08 04:20:13;;;;;;;;;3.75;2.50;;;;;15.84;56.09;102891.66;6304083;22;73405;-80
2022/07/08 04:22:38;;;;;;;;;6.25;1.75;;;;;15.85;56.92;102896.00;6278014;22;45342;-81
2022/07/08 04:25:05;;;;;;;;;2.50;2.00;;;;;15.81;56.83;102885.59;6305571;22;45343;-81
2022/07/08 04:27:31;;;;;;;;;2.00;2.00;;;;;15.82;55.83;102888.19;6304805;22;46502;-80
2022/07/08 04:29:56;;;;;;;;;3.00;2.00;;;;;15.77;56.48;102886.53;6303935;22;72151;-81
2022/07/08 04:32:21;;;;;;;;;5.00;3.25;;;;;15.81;56.27;102890.84;6302445;22;69444;-81
2022/07/08 04:34:47;;;;;;;;;5.25;2.25;;;;;15.83;56.54;102896.94;6303937;22;68014;-83
2022/07/08 04:37:13;;;;;;;;;3.00;2.00;;;;;15.81;56.07;102898.72;6304874;22;45195;-83
2022/07/08 04:39:38;;;;;;;;;2.75;2.00;;;;;15.84;55.79;102901.28;6277971;22;45446;-81
2022/07/08 04:42:04;;;;;;;;;4.00;1.25;;;;;15.85;56.00;102913.53;6304333;22;68499;-81
2022/07/08 04:44:30;;;;;;;;;3.00;1.00;;;;;15.84;56.04;102915.31;6304664;22;45172;-81
2022/07/08 04:46:55;;;;;;;;;3.00;1.25;;;;;15.84;57.31;102910.06;6276195;22;72243;-81
2022/07/08 04:49:20;;;;;;;;;2.25;1.75;;;;;15.84;57.23;102914.41;6304314;22;67783;-81
2022/07/08 04:51:45;;;;;;;;;2.50;2.50;;;;;15.85;56.68;102919.66;6276618;22;66339;-81
2022/07/08 04:54:11;;;;;;;;;2.50;2.00;;;;;15.86;55.89;102910.88;6305254;22;46187;-81
2022/07/08 04:56:36;;;;;;;;;2.00;2.00;;;;;15.90;55.80;102922.22;6303927;22;69404;-81
2022/07/08 04:59:01;;;;;;;;;3.75;1.25;;;;;15.92;56.13;102919.56;6276016;22;67943;-81
2022/07/08 05:01:27;;;;;;;;;4.00;2.00;;;;;15.93;55.66;102926.53;6305446;22;45275;-80
2022/07/08 05:03:53;;;;;;;;;6.00;2.50;;;;;15.95;56.29;102930.84;6304276;22;70135;-81
2022/07/08 05:06:19;;;;;;;;;2.50;2.50;;;;;15.93;56.19;102926.53;6304449;22;46178;-81
2022/07/08 05:08:44;;;;;;;;;5.00;2.25;;;;;15.99;55.78;102927.31;6276590;22;73297;-81
2022/07/08 05:11:09;;;;;;;;;2.25;2.25;;;;;16.01;56.47;102929.88;6276723;22;65959;-81
2022/07/08 05:13:35;;;;;;;;;3.00;3.00;;;;;16.02;56.04;102927.25;6303676;22;59748;-81
2022/07/08 05:16:00;;;;;;;;;5.00;3.00;;;;;16.02;56.45;102935.13;6303836;22;67759;-81
2022/07/08 05:18:25;;;;;;;;;3.75;3.00;;;;;15.99;55.59;102927.31;6303384;22;69345;-81
2022/07/08 05:20:51;;;;;;;;;9.00;2.25;;;;;16.04;55.76;102933.31;6304914;22;45598;-81
2022/07/08 05:23:16;;;;;;;;;5.00;3.25;;;;;16.10;56.48;102940.25;6304880;22;45327;-81
2022/07/08 05:25:42;;;;;;;;;3.00;3.00;;;;;16.09;56.19;102935.03;6277078;22;46345;-81
2022/07/08 05:28:07;;;;;;;;;4.00;2.75;;;;;16.12;55.79;102938.47;6276556;22;51643;-81
2022/07/08 05:30:32;;;;;;;;;2.00;1.00;;;;;16.15;55.60;102942.81;6303855;22;62638;-81
2022/07/08 05:32:58;;;;;;;;;2.25;2.00;;;;;16.11;55.73;102928.84;6304952;22;45342;-81
2022/07/08 05:35:24;;;;;;;;;2.25;1.25;;;;;16.11;56.12;102928.00;6305151;22;46633;-81
2022/07/08 05:37:49;;;;;;;;;2.50;2.50;;;;;16.14;55.73;102931.44;6277704;22;45285;-81
2022/07/08 05:40:15;;;;;;;;;2.75;2.00;;;;;16.15;55.58;102934.91;6304706;22;45359;-81
2022/07/08 05:42:40;;;;;;;;;2.25;2.25;;;;;16.16;56.45;102939.28;6305040;22;45373;-81
2022/07/08 05:45:07;;;;;;;;;2.75;2.50;;;;;16.21;55.62;102938.31;6304979;22;47890;-81
2022/07/08 05:47:32;;;;;;;;;2.75;2.00;;;;;16.22;55.51;102940.03;6277011;22;45828;-81
2022/07/08 05:49:58;;;;;;;;;5.50;2.75;;;;;16.14;55.40;102920.03;6276791;22;51407;-81
2022/07/08 05:52:24;;;;;;;;;5.75;2.75;;;;;16.16;55.77;102924.38;6277391;22;45471;-81
2022/07/08 05:54:49;;;;;;;;;2.75;2.00;;;;;16.24;56.25;102943.50;6277463;22;46441;-81
2022/07/08 05:57:15;;;;;;;;;3.25;3.25;;;;;16.28;55.72;102944.31;6303091;22;66846;-81
2022/07/08 05:59:44;;;;;;;;;4.75;2.25;;;;;16.32;55.83;102943.38;6276690;22;55937;-81
2022/07/08 06:02:09;;;;;;;;;6.00;3.75;;;;;16.32;55.28;102935.47;6305180;22;45240;-81
2022/07/08 06:04:35;;;;;;;;;6.00;2.00;;;;;16.35;55.50;102937.19;6304472;22;45336;-81
2022/07/08 06:07:00;;;;;;;;;5.00;3.75;;;;;16.39;56.05;102941.50;6276131;22;71251;-81
2022/07/08 06:09:25;;;;;;;;;4.00;2.75;;;;;16.41;55.58;102937.94;6303547;22;65562;-81
2022/07/08 06:11:51;;;;;;;;;4.25;3.00;;;;;16.47;55.07;102942.22;6303444;22;69298;-81
2022/07/08 06:14:17;;;;;;;;;3.50;2.00;;;;;16.40;55.96;102930.06;6276838;22;59240;-81
2022/07/08 06:16:42;;;;;;;;;6.25;2.00;;;;;16.53;55.94;102938.59;6304592;22;45352;-81
2022/07/08 06:19:08;;;;;;;;;3.50;3.25;;;;;16.58;55.63;102942.00;6275494;22;69516;-81
2022/07/08 06:21:33;;;;;;;;;5.25;2.75;;;;;16.58;55.43;102942.88;6277389;22;45353;-81
2022/07/08 06:24:00;;;;;;;;;3.00;2.75;;;;;16.61;54.89;102940.19;6276970;22;45366;-81
2022/07/08 06:26:26;;;;;;;;;3.00;2.00;;;;;16.68;55.86;102945.31;6276812;22;45655;-81
2022/07/08 06:28:51;;;;;;;;;4.25;2.00;;;;;16.71;56.19;102951.41;6304682;22;45694;-81
2022/07/08 06:31:16;;;;;;;;;5.00;2.00;;;;;16.77;55.69;102955.66;6303396;22;67799;-81
2022/07/08 06:33:42;;;;;;;;;3.75;3.00;;;;;16.80;54.75;102960.88;6304812;22;46196;-82
2022/07/08 06:36:07;;;;;;;;;4.75;2.00;;;;;16.78;54.59;102960.03;6249886;22;74141;-82
2022/07/08 06:38:33;;;;;;;;;3.00;3.00;;;;;16.81;54.64;102965.25;6250938;22;45245;-82
2022/07/08 06:40:58;;;;;;;;;6.00;3.25;;;;;16.84;54.24;102975.72;6304183;22;45481;-84
2022/07/08 06:43:23;;;;;;;;;3.75;2.75;;;;;16.87;54.66;102967.78;6276203;22;67851;-83
2022/07/08 06:45:49;;;;;;;;;3.75;2.00;;;;;16.85;54.54;102958.22;6275954;22;69592;-83
2022/07/08 06:48:14;;;;;;;;;2.50;2.00;;;;;16.87;54.15;102951.16;6277399;22;45228;-84
2022/07/08 06:50:40;;;;;;;;;4.00;2.75;;;;;16.92;53.73;102962.41;6276879;22;45296;-84
2022/07/08 06:53:05;;;;;;;;;4.50;3.00;;;;;16.95;53.84;102947.44;6276727;22;47125;-85
2022/07/08 06:55:30;;;;;;;;;2.00;2.00;;;;;17.04;53.56;102959.53;6303010;22;64325;-83
2022/07/08 06:57:56;;;;;;;;;3.25;2.00;;;;;17.11;53.75;102955.03;6276622;22;53517;-80
2022/07/08 07:00:24;;;;;;;;;3.50;2.00;;;;;17.19;53.79;102961.00;6303363;22;70061;-83
2022/07/08 07:02:50;;;;;;;;;4.00;2.00;;;;;17.17;53.14;102953.13;6277128;22;45391;-83
2022/07/08 07:05:17;;;;;;;;;2.75;2.50;;;;;17.24;52.94;102953.00;6276857;22;45615;-81
2022/07/08 07:07:42;;;;;;;;;4.00;2.00;;;;;17.28;53.19;102955.53;6304348;22;45191;-81
2022/07/08 07:10:08;;;;;;;;;2.00;2.00;;;;;17.37;52.90;102963.22;6277087;22;45556;-82
2022/07/08 07:12:33;;;;;;;;;3.50;1.00;;;;;17.34;52.05;102946.63;6303934;22;46346;-81
2022/07/08 07:14:59;;;;;;;;;4.50;3.00;;;;;17.45;52.48;102954.28;6275425;22;70308;-80
2022/07/08 07:17:24;;;;;;;;;2.50;2.00;;;;;17.49;52.34;102961.22;6303481;22;65573;-81
2022/07/08 07:19:49;;;;;;;;;2.50;1.00;;;;;17.55;51.98;102955.78;6302970;22;70141;-80
2022/07/08 07:22:16;;;;;;;;;2.25;2.00;;;;;17.61;52.25;102963.56;6302599;22;75502;-81
2022/07/08 07:24:42;;;;;;;;;3.50;2.00;;;;;17.66;51.44;102966.94;6304455;22;45517;-82
2022/07/08 07:27:07;;;;;;;;;6.00;2.00;;;;;17.67;51.89;102957.31;6275397;22;66628;-80
2022/07/08 07:29:32;;;;;;;;;2.00;1.00;;;;;17.73;51.49;102965.03;6304609;22;45361;-78
2022/07/08 07:31:58;;;;;;;;;3.25;1.25;;;;;17.77;51.12;102961.44;6305718;22;46347;-81
2022/07/08 07:34:23;;;;;;;;;2.75;2.00;;;;;17.77;51.35;102951.78;6303872;22;72767;-83
2022/07/08 07:36:49;;;;;;;;;2.50;1.50;;;;;17.81;50.59;102960.44;6275782;22;70783;-86
2022/07/08 07:39:14;;;;;;;;;3.50;1.00;;;;;17.90;50.92;102972.56;6277310;22;45390;-83
2022/07/08 07:41:39;;;;;;;;;3.50;2.00;;;;;17.89;50.79;102969.09;6304573;22;45496;-81
2022/07/08 07:44:05;;;;;;;;;1.25;1.25;;;;;17.91;50.60;102959.38;6304407;22;54637;-81
2022/07/08 07:46:31;;;;;;;;;2.50;1.00;;;;;18.03;50.61;102962.59;6275904;22;45636;-84
2022/07/08 07:48:56;;;;;;;;;4.25;3.00;;;;;18.02;50.27;102956.47;6302795;22;45332;-82
2022/07/08 07:51:22;;;;;;;;;2.00;2.00;;;;;18.12;50.87;102959.75;6303143;22;46058;-81
2022/07/08 07:53:47;;;;;;;;;2.50;2.00;;;;;18.18;50.75;102954.31;6304920;22;45276;-83
2022/07/08 07:56:12;;;;;;;;;3.75;2.00;;;;;18.26;50.94;102956.75;6276863;22;65298;-82
2022/07/08 07:58:38;;;;;;;;;4.75;3.25;;;;;18.29;50.42;102952.25;6304076;22;62404;-81
2022/07/08 08:01:04;;;;;;;;;3.25;3.00;;;;;18.42;50.54;102962.47;6276590;22;46504;-82
2022/07/08 08:03:29;;;;;;;;;3.00;3.00;;;;;18.45;50.83;102962.41;6304800;22;45218;-82
2022/07/08 08:05:55;;;;;;;;;3.25;1.75;;;;;18.49;50.45;102964.06;6276130;22;58712;-81
2022/07/08 08:08:20;;;;;;;;;3.25;2.50;;;;;18.53;50.02;102955.13;6276304;22;49443;-81
2022/07/08 08:10:45;;;;;;;;;3.50;3.00;;;;;18.56;50.02;102957.72;6275571;22;75200;-83
2022/07/08 08:13:11;;;;;;;;;5.75;3.00;;;;;18.58;49.78;102950.63;6275860;22;73563;-85
2022/07/08 08:15:37;;;;;;;;;4.50;3.50;;;;;18.58;49.46;102953.25;6304575;22;45237;-83
2022/07/08 08:18:02;;;;;;;;;3.00;3.00;;;;;18.59;49.44;102955.00;6276596;22;45307;-84
2022/07/08 08:20:29;;;;;;;;;4.00;3.00;;;;;18.65;49.26;102951.31;6303397;22;46482;-82
2022/07/08 08:22:54;;;;;;;;;2.25;2.25;;;;;18.72;49.41;102959.03;6276806;22;45329;-83
2022/07/08 08:25:20;;;;;;;;;7.50;4.50;;;;;18.75;49.69;102964.19;6277585;22;45444;-84
2022/07/08 08:27:46;;;;;;;;;7.75;4.50;;;;;18.83;49.27;102965.78;6277412;22;45327;-83
2022/07/08 08:30:12;;;;;;;;;3.25;3.25;;;;;18.81;48.54;102965.81;6276607;22;47479;-84
2022/07/08 08:32:37;;;;;;;;;6.25;4.25;;;;;18.79;48.86;102957.06;6304088;22;45379;-86
2022/07/08 08:35:03;;;;;;;;;2.00;2.00;;;;;18.85;49.01;102962.22;6304684;22;45557;-86
2022/07/08 08:37:29;;;;;;;;;7.00;5.00;;;;;18.86;48.38;102949.88;6303221;22;45157;-86
2022/07/08 08:39:54;;;;;;;;;8.00;4.00;;;;;18.90;48.69;102949.72;6268939;22;72111;-86
2022/07/08 08:42:20;;;;;;;;;4.00;4.00;;;;;18.97;48.03;102937.22;6270762;22;45361;-87
2022/07/08 08:44:49;;;;;;;;;6.25;3.00;;;;;19.07;48.56;102943.94;6271504;22;45392;-86
2022/07/08 08:47:15;;;;;;;;;4.25;4.00;;;;;19.11;47.75;102947.38;6272976;22;45570;-87
2022/07/08 08:49:41;;;;;;;;;8.25;3.50;;;;;19.09;47.93;102925.44;6271286;22;45449;-83
2022/07/08 08:52:09;;;;;;;;;5.25;5.25;;;;;19.18;47.68;102937.50;6270578;22;71506;-84
2022/07/08 08:54:35;;;;;;;;;5.00;4.75;;;;;19.20;47.24;102933.03;6271094;22;45414;-83
2022/07/08 08:57:01;;;;;;;;;4.75;4.75;;;;;19.24;47.79;102930.28;6270483;22;45443;-83
2022/07/08 08:59:27;;;;;;;;;7.00;5.25;;;;;19.35;48.27;102929.91;6270536;22;46415;-82
2022/07/08 09:01:54;;;;;;;;;5.75;3.50;;;;;19.41;47.79;102924.47;6271110;22;45849;-85
2022/07/08 09:04:20;;;;;;;;;5.75;4.75;;;;;19.45;47.88;102914.66;6297811;22;45425;-84
2022/07/08 09:06:45;;;;;;;;;3.75;3.50;;;;;19.49;47.04;102919.78;6296805;22;64725;-82
2022/07/08 09:09:10;;;;;;;;;7.00;5.25;;;;;19.53;46.65;102918.75;6268798;22;66308;-83
2022/07/08 09:11:39;;;;;;;;;8.50;4.50;;;;;19.58;46.76;102909.84;6296500;22;62318;-87
2022/07/08 09:14:21;;;;;;;;;9.75;6.50;;;;;19.65;48.04;102914.88;6270211;22;45374;-83
2022/07/08 09:17:05;;;;;;;;;8.50;5.00;;;;;19.70;47.09;102912.94;6272607;22;45505;-88
2022/07/08 09:19:31;;;;;;;;;7.25;4.00;;;;;19.76;47.17;102916.31;6296284;22;45674;-85
2022/07/08 09:21:56;;;;;;;;;7.50;6.00;;;;;19.81;46.99;102907.31;6268529;22;66106;-85
2022/07/08 09:24:21;;;;;;;;;8.00;7.00;;;;;19.96;46.49;102908.59;6270458;22;64101;-88
2022/07/08 09:26:47;;;;;;;;;5.00;5.00;;;;;20.00;46.57;102902.31;6270102;22;45575;-85
2022/07/08 09:29:12;;;;;;;;;11.00;6.75;;;;;20.14;46.03;102911.53;6298785;22;46722;-91
2022/07/08 09:31:38;;;;;;;;;8.00;7.00;;;;;20.15;45.96;102905.31;6271113;22;45336;-89
2022/07/08 09:34:10;;;;;;;;;8.50;8.00;;;;;20.20;46.32;102904.22;6271542;22;45323;-88
2022/07/08 09:36:46;;;;;;;;;7.25;6.00;;;;;20.33;45.84;102909.94;6270500;22;45514;-84
2022/07/08 09:39:28;;;;;;;;;6.75;6.25;;;;;20.39;46.13;102906.22;6269590;22;48249;-83
2022/07/08 09:41:53;;;;;;;;;6.75;5.00;;;;;20.49;45.41;102908.47;6298255;22;45479;-83
2022/07/08 09:44:22;;;;;;;;;9.00;7.00;;;;;20.51;45.15;102895.22;6297848;22;45376;-83
2022/07/08 09:46:48;;;;;;;;;3.00;3.00;;;;;20.56;44.99;102893.25;6297542;22;45518;-82
2022/07/08 09:49:33;;;;;;;;;8.00;5.50;;;;;20.63;44.26;102900.06;6269423;22;46162;-83
2022/07/08 09:51:59;;;;;;;;;3.00;3.00;;;;;20.67;44.12;102901.69;6270077;22;45383;-85
2022/07/08 09:54:27;;;;;;;;;6.75;5.50;;;;;20.73;43.99;102903.25;6270481;22;45468;-84
2022/07/08 09:57:06;;;;;;;;;9.00;7.75;;;;;20.80;44.00;102904.75;6270859;22;45853;-83
2022/07/08 09:59:33;;;;;;;;;6.25;5.00;;;;;20.82;44.00;102894.97;6295856;22;46626;-85
2022/07/08 10:01:59;;;;;;;;;6.00;3.25;;;;;20.97;43.67;102903.22;6297099;22;45699;-84
2022/07/08 10:04:25;;;;;;;;;6.75;4.25;;;;;21.02;43.58;102903.91;6296186;22;45389;-88
2022/07/08 10:06:51;;;;;;;;;5.50;4.00;;;;;21.00;43.01;102895.16;6268518;22;45330;-85
2022/07/08 10:09:18;;;;;;;;;6.00;4.75;;;;;21.03;42.10;102884.47;6269924;22;46348;-83
2022/07/08 10:11:44;;;;;;;;;4.00;4.00;;;;;21.18;42.57;102899.75;6270764;22;45461;-85
2022/07/08 10:14:11;;;;;;;;;6.00;3.50;;;;;21.19;42.88;102895.28;6268746;22;45451;-85
2022/07/08 10:16:38;;;;;;;;;3.75;3.75;;;;;21.32;42.19;102893.03;6296558;22;45388;-86
2022/07/08 10:19:26;;;;;;;;;7.00;4.25;;;;;21.41;41.68;102888.25;6268405;22;46127;-84
2022/07/08 10:21:54;;;;;;;;;6.25;5.00;;;;;21.52;42.84;102897.56;6267008;22;46063;-84
2022/07/08 10:24:23;;;;;;;;;3.75;3.75;;;;;21.59;42.15;102893.72;6269556;22;45396;-86
2022/07/08 10:26:49;;;;;;;;;4.00;3.00;;;;;21.68;41.26;102895.16;6269815;22;45328;-84
2022/07/08 10:29:14;;;;;;;;;7.25;4.00;;;;;21.71;41.27;102887.94;6294731;22;45391;-84
2022/07/08 10:31:43;;;;;;;;;5.50;4.00;;;;;21.84;41.69;102891.78;6267770;22;45404;-85
2022/07/08 10:34:10;;;;;;;;;5.00;4.00;;;;;21.96;42.45;102894.84;6294814;22;45412;-83
2022/07/08 10:36:46;;;;;;;;;5.75;4.00;;;;;22.09;41.81;102890.72;6266079;22;45366;-80
2022/07/08 10:39:13;;;;;;;;;4.25;4.00;;;;;22.17;40.76;102883.28;6294931;22;46565;-83
2022/07/08 10:41:39;;;;;;;;;2.50;2.50;;;;;22.28;40.56;102876.66;6294805;22;45721;-80
2022/07/08 10:44:05;;;;;;;;;4.50;4.00;;;;;22.36;39.65;102893.09;6296115;22;45385;-80
2022/07/08 10:46:30;;;;;;;;;8.00;5.25;;;;;22.34;39.05;102881.69;6296806;22;45484;-81
2022/07/08 10:49:00;;;;;;;;;4.00;3.00;;;;;22.42;38.61;102887.53;6296509;22;62581;-83
2022/07/08 10:51:26;;;;;;;;;3.00;3.00;;;;;22.49;39.26;102882.78;6268903;22;45660;-84
2022/07/08 10:53:53;;;;;;;;;6.25;1.50;;;;;22.51;38.07;102886.22;6296882;22;45374;-81
2022/07/08 10:56:56;;;;;;;;;3.75;3.00;;;;;22.62;37.65;102889.25;6296553;22;45311;-80
2022/07/08 10:59:25;;;;;;;;;3.00;3.00;;;;;22.70;38.32;102891.59;6280484;22;46340;-81
2022/07/08 11:01:53;;;;;;;;;2.00;1.75;;;;;22.84;37.73;102886.47;6294423;22;45334;-81
2022/07/08 11:04:34;;;;;;;;;4.25;2.00;;;;;22.96;38.18;102883.25;6269219;22;45751;-82
2022/07/08 11:07:20;;;;;;;;;1.50;1.50;;;;;23.14;37.19;102892.19;6294577;22;45327;-80
2022/07/08 11:10:04;;;;;;;;;5.50;5.50;;;;;23.23;36.92;102882.03;6297133;22;46239;-80
2022/07/08 11:12:31;;;;;;;;;8.50;7.50;;;;;23.32;37.19;102881.56;6297509;22;45317;-79
2022/07/08 11:14:58;;;;;;;;;3.25;2.00;;;;;23.35;36.69;102876.97;6268042;22;45387;-80
2022/07/08 11:17:35;;;;;;;;;3.00;2.00;;;;;23.36;36.44;102884.03;6268991;22;45450;-79
2022/07/08 11:20:05;;;;;;;;;4.00;2.00;;;;;23.42;36.56;102881.97;6237961;22;45410;-80
2022/07/08 11:22:37;;;;;;;;;3.75;1.50;;;;;23.47;36.26;102874.63;6265819;22;45358;-82
2022/07/08 11:25:03;;;;;;;;;4.25;1.50;;;;;23.53;36.50;102869.88;6238693;22;45308;-84